createdAt,value
2023-03-08T00:01:23.033Z,306.35294
2023-03-08T00:06:24.672Z,308.49704
2023-03-08T00:11:26.085Z,302.13953
2023-03-08T00:16:27.629Z,294
2023-03-08T00:21:29.313Z,296
2023-03-08T00:26:30.818Z,292.0226
2023-03-08T00:31:32.329Z,292.0226
2023-03-08T00:36:33.838Z,290.06742
2023-03-08T00:41:35.460Z,296
2023-03-08T00:46:37.200Z,296
2023-03-08T00:51:38.727Z,292.0226
2023-03-08T00:56:40.180Z,286.22222
2023-03-08T01:01:41.724Z,286.22222
2023-03-08T01:06:43.351Z,280.61202
2023-03-08T01:11:44.977Z,278.78261
2023-03-08T01:16:46.495Z,278.78261
2023-03-08T01:21:48.011Z,280.61202
2023-03-08T01:26:49.486Z,294
2023-03-08T01:31:51.036Z,294
2023-03-08T01:36:52.563Z,294
2023-03-08T01:41:54.096Z,298.02299
2023-03-08T01:46:55.608Z,294
2023-03-08T01:51:57.105Z,292.0226
2023-03-08T01:56:58.691Z,294
2023-03-08T02:02:00.209Z,290.06742
2023-03-08T02:07:01.713Z,290.06742
2023-03-08T02:12:03.322Z,286.22222
2023-03-08T02:17:04.756Z,282.46154
2023-03-08T02:22:06.227Z,278.78261
2023-03-08T02:27:07.812Z,273.41176
2023-03-08T02:32:09.335Z,273.41176
2023-03-08T02:37:10.823Z,271.65957
2023-03-08T02:42:12.294Z,271.65957
2023-03-08T02:47:13.850Z,268.21053
2023-03-08T02:52:15.382Z,266.51309
2023-03-08T02:57:16.878Z,266.51309
2023-03-08T03:02:18.331Z,266.51309
2023-03-08T03:07:19.809Z,263.17098
2023-03-08T03:12:21.336Z,264.83333
2023-03-08T03:17:22.941Z,264.83333
2023-03-08T03:22:24.406Z,266.51309
2023-03-08T03:27:25.878Z,266.51309
2023-03-08T03:32:27.645Z,266.51309
2023-03-08T03:37:29.185Z,264.83333
2023-03-08T03:42:30.749Z,264.83333
2023-03-08T03:47:32.215Z,264.83333
2023-03-08T03:52:33.745Z,261.52577
2023-03-08T03:57:35.238Z,258.28571
2023-03-08T04:02:36.807Z,248.9505
2023-03-08T04:07:38.328Z,244.4878
2023-03-08T04:12:39.828Z,247.44828
2023-03-08T04:17:41.290Z,245.96078
2023-03-08T04:22:42.803Z,245.96078
2023-03-08T04:27:44.367Z,247.44828
2023-03-08T04:32:45.847Z,250.46766
2023-03-08T04:37:49.664Z,258.28571
2023-03-08T04:42:51.514Z,261.52577
2023-03-08T04:47:52.995Z,266.51309
2023-03-08T04:52:54.458Z,259.89744
2023-03-08T04:57:55.960Z,266.51309
2023-03-08T05:02:57.480Z,268.21053
2023-03-08T05:07:58.990Z,269.92593
2023-03-08T05:13:00.522Z,264.83333
2023-03-08T05:18:02.076Z,263.17098
2023-03-08T05:23:03.533Z,268.21053
2023-03-08T05:28:05.156Z,273.41176
2023-03-08T05:33:06.699Z,263.17098
2023-03-08T05:38:08.185Z,271.65957
2023-03-08T05:43:09.710Z,268.21053
2023-03-08T05:48:11.120Z,268.21053
2023-03-08T05:53:12.638Z,282.46154
2023-03-08T05:58:14.133Z,273.41176
2023-03-08T06:03:15.730Z,280.61202
2023-03-08T06:08:17.927Z,276.97297
2023-03-08T06:13:19.477Z,280.61202
2023-03-08T06:18:21.078Z,282.46154
2023-03-08T06:23:22.554Z,290.06742
2023-03-08T06:28:24.096Z,302.13953
2023-03-08T06:33:25.569Z,302.13953
2023-03-08T06:38:29.460Z,324.24691
2023-03-08T06:43:31.602Z,331.42138
2023-03-08T06:48:33.118Z,324.24691
2023-03-08T06:53:34.665Z,315.08434
2023-03-08T06:58:36.128Z,312.86228
2023-03-08T07:03:37.608Z,326.6087
2023-03-08T07:08:39.104Z,317.33333
2023-03-08T07:13:40.618Z,321.91411
2023-03-08T07:18:42.167Z,306.35294
2023-03-08T07:23:43.772Z,324.24691
2023-03-08T07:28:45.380Z,351.94702
2023-03-08T07:33:46.882Z,357.42282
2023-03-08T07:38:48.384Z,368.82759
2023-03-08T07:43:49.872Z,331.42138
2023-03-08T07:48:53.038Z,341.41935
2023-03-08T07:53:56.268Z,374.76923
2023-03-08T07:58:57.813Z,363.04762
2023-03-08T08:03:59.487Z,363.04762
2023-03-08T08:09:01.063Z,357.42282
2023-03-08T08:14:02.614Z,346.61438
2023-03-08T08:19:04.090Z,365.91781
2023-03-08T08:24:05.657Z,357.42282
2023-03-08T08:29:07.130Z,374.76923
2023-03-08T08:34:08.606Z,360.21622
2023-03-08T08:39:10.141Z,371.77778
2023-03-08T08:44:11.793Z,374.76923
2023-03-08T08:49:13.366Z,351.94702
2023-03-08T08:54:14.916Z,377.80282
2023-03-08T08:59:16.450Z,351.94702
2023-03-08T09:04:18.186Z,357.42282
2023-03-08T09:09:19.745Z,344
2023-03-08T09:14:21.427Z,384
2023-03-08T09:19:23.134Z,368.82759
2023-03-08T09:24:24.721Z,354.66667
2023-03-08T09:29:26.338Z,368.82759
2023-03-08T09:34:27.788Z,351.94702
2023-03-08T09:39:29.253Z,374.76923
2023-03-08T09:44:30.735Z,344
2023-03-08T09:49:32.324Z,357.42282
2023-03-08T09:54:34.268Z,354.66667
2023-03-08T09:59:35.720Z,374.76923
2023-03-08T10:04:37.259Z,365.91781
2023-03-08T10:09:38.826Z,363.04762
2023-03-08T10:14:40.399Z,360.21622
2023-03-08T10:19:41.843Z,360.21622
2023-03-08T10:24:43.396Z,357.42282
2023-03-08T10:29:45.010Z,365.91781
2023-03-08T10:34:46.595Z,368.82759
2023-03-08T10:39:48.211Z,380.87943
2023-03-08T10:44:49.901Z,341.41935
2023-03-08T10:49:51.383Z,360.21622
2023-03-08T10:54:52.802Z,374.76923
2023-03-08T10:59:54.436Z,377.80282
2023-03-08T11:04:56.161Z,400.2963
2023-03-08T11:09:57.801Z,377.80282
2023-03-08T11:14:59.301Z,363.04762
2023-03-08T11:20:00.915Z,371.77778
2023-03-08T11:25:02.334Z,380.87943
2023-03-08T11:30:03.988Z,368.82759
2023-03-08T11:35:05.561Z,374.76923
2023-03-08T11:40:07.106Z,363.04762
2023-03-08T11:45:08.623Z,371.77778
2023-03-08T11:50:10.205Z,384
2023-03-08T11:55:11.664Z,365.91781
2023-03-08T12:00:13.300Z,368.82759
2023-03-08T12:05:14.906Z,371.77778
2023-03-08T12:10:17.185Z,384
2023-03-08T12:15:19.468Z,377.80282
2023-03-08T12:20:21.244Z,387.16547
2023-03-08T12:25:22.744Z,407.15789
2023-03-08T12:30:24.219Z,371.77778
2023-03-08T12:35:25.780Z,396.94118
2023-03-08T12:40:27.281Z,377.80282
2023-03-08T12:45:28.947Z,360.21622
2023-03-08T12:50:30.444Z,384
2023-03-08T12:55:32.098Z,393.63504
2023-03-08T13:00:33.627Z,393.63504
2023-03-08T13:05:35.092Z,377.80282
2023-03-08T13:10:36.684Z,363.04762
2023-03-08T13:15:38.136Z,377.80282
2023-03-08T13:20:41.463Z,380.87943
2023-03-08T13:25:43.444Z,380.87943
2023-03-08T13:30:44.909Z,377.80282
2023-03-08T13:35:46.501Z,380.87943
2023-03-08T13:40:48.126Z,371.77778
2023-03-08T13:45:49.769Z,371.77778
2023-03-08T13:50:51.298Z,380.87943
2023-03-08T13:55:52.763Z,384
2023-03-08T14:00:54.332Z,371.77778
2023-03-08T14:05:55.849Z,374.76923
2023-03-08T14:10:57.404Z,380.87943
2023-03-08T14:15:58.933Z,377.80282
2023-03-08T14:21:00.538Z,380.87943
2023-03-08T14:26:03.764Z,380.87943
2023-03-08T14:31:08.379Z,377.80282
2023-03-08T14:36:11.533Z,390.37681
2023-03-08T14:41:14.045Z,403.70149
2023-03-08T14:46:15.573Z,380.87943
2023-03-08T14:51:17.213Z,400.2963
2023-03-08T14:56:18.697Z,393.63504
2023-03-08T15:01:20.262Z,387.16547
2023-03-08T15:06:21.874Z,393.63504
2023-03-08T15:11:23.462Z,400.2963
2023-03-08T15:16:24.992Z,414.22901
2023-03-08T15:21:26.507Z,380.87943
2023-03-08T15:26:27.993Z,374.76923
2023-03-08T15:31:29.599Z,393.63504
2023-03-08T15:36:31.145Z,410.66667
2023-03-08T15:41:32.611Z,393.63504
2023-03-08T15:46:34.184Z,400.2963
2023-03-08T15:51:35.751Z,396.94118
2023-03-08T15:56:37.545Z,363.04762
2023-03-08T16:01:39.100Z,349.26316
2023-03-08T16:06:40.846Z,349.26316
2023-03-08T16:11:42.560Z,354.66667
2023-03-08T16:16:45.908Z,341.41935
2023-03-08T16:21:47.592Z,282.46154
2023-03-08T16:26:49.062Z,308.49704
2023-03-08T16:31:50.616Z,304.23392
2023-03-08T16:36:52.251Z,321.91411
2023-03-08T16:41:53.863Z,321.91411
2023-03-08T16:46:55.335Z,321.91411
2023-03-08T16:51:56.834Z,315.08434
2023-03-08T16:57:01.094Z,319.60976
2023-03-08T17:02:06.599Z,304.23392
2023-03-08T17:07:08.083Z,302.13953
2023-03-08T17:12:09.585Z,304.23392
2023-03-08T17:17:11.214Z,292.0226
2023-03-08T17:22:12.718Z,302.13953
2023-03-08T17:27:14.202Z,306.35294
2023-03-08T17:32:15.847Z,290.06742
2023-03-08T17:37:17.431Z,288.13408
2023-03-08T17:42:19.063Z,284.33149
2023-03-08T17:47:20.742Z,275.1828
2023-03-08T17:52:22.245Z,268.21053
2023-03-08T17:57:23.852Z,268.21053
2023-03-08T18:02:25.351Z,273.41176
2023-03-08T18:07:27.085Z,276.97297
2023-03-08T18:12:28.622Z,282.46154
2023-03-08T18:17:30.217Z,282.46154
2023-03-08T18:22:31.725Z,269.92593
2023-03-08T18:27:34.467Z,278.78261
2023-03-08T18:32:36.444Z,292.0226
2023-03-08T18:37:38.147Z,288.13408
2023-03-08T18:42:39.636Z,288.13408
2023-03-08T18:47:41.266Z,296
2023-03-08T18:52:42.804Z,290.06742
2023-03-08T18:57:44.243Z,298.02299
2023-03-08T19:02:45.799Z,304.23392
2023-03-08T19:07:47.640Z,310.66667
2023-03-08T19:12:49.178Z,306.35294
2023-03-08T19:17:50.788Z,317.33333
2023-03-08T19:22:52.256Z,321.91411
2023-03-08T19:27:53.893Z,319.60976
2023-03-08T19:32:55.401Z,317.33333
2023-03-08T19:37:56.962Z,315.08434
2023-03-08T19:42:58.468Z,312.86228
2023-03-08T19:48:00.153Z,317.33333
2023-03-08T19:53:01.579Z,319.60976
2023-03-08T19:58:03.165Z,321.91411
2023-03-08T20:03:04.664Z,319.60976
2023-03-08T20:08:06.194Z,319.60976
2023-03-08T20:13:08.196Z,319.60976
2023-03-08T20:18:10.087Z,310.66667
2023-03-08T20:23:11.513Z,308.49704
2023-03-08T20:28:13.094Z,312.86228
2023-03-08T20:33:14.574Z,308.49704
2023-03-08T20:38:16.045Z,319.60976
2023-03-08T20:43:17.541Z,306.35294
2023-03-08T20:48:19.091Z,306.35294
2023-03-08T20:53:20.599Z,308.49704
2023-03-08T20:58:22.122Z,308.49704
2023-03-08T21:03:23.604Z,308.49704
2023-03-08T21:08:25.121Z,302.13953
2023-03-08T21:13:27.394Z,306.35294
2023-03-08T21:18:28.890Z,306.35294
2023-03-08T21:23:30.341Z,304.23392
2023-03-08T21:28:31.994Z,308.49704
2023-03-08T21:33:33.611Z,306.35294
2023-03-08T21:38:35.222Z,304.23392
2023-03-08T21:43:37.397Z,302.13953
2023-03-08T21:48:38.906Z,304.23392
2023-03-08T21:53:40.392Z,306.35294
2023-03-08T21:58:41.925Z,306.35294
2023-03-08T22:03:43.580Z,304.23392
2023-03-08T22:08:45.146Z,304.23392
2023-03-08T22:13:46.643Z,306.35294
2023-03-08T22:18:48.343Z,304.23392
2023-03-08T22:23:51.391Z,300.06936
2023-03-08T22:28:53.149Z,306.35294
2023-03-08T22:33:54.784Z,302.13953
2023-03-08T22:38:56.348Z,300.06936
2023-03-08T22:43:57.850Z,300.06936
2023-03-08T22:48:59.360Z,298.02299
2023-03-08T22:54:00.802Z,300.06936
2023-03-08T22:59:02.291Z,300.06936
2023-03-08T23:04:04.059Z,304.23392
2023-03-08T23:09:05.534Z,298.02299
2023-03-08T23:14:07.049Z,302.13953
2023-03-08T23:19:08.496Z,302.13953
2023-03-08T23:24:10.019Z,302.13953
2023-03-08T23:29:11.510Z,304.23392
2023-03-08T23:34:13.148Z,302.13953
2023-03-08T23:39:14.637Z,302.13953
2023-03-08T23:44:16.156Z,302.13953
2023-03-08T23:49:17.668Z,302.13953
2023-03-08T23:54:19.141Z,298.02299
2023-03-08T23:59:20.608Z,300.06936
